Terminal Aerodrome Forecast
Issued by NWS

Home | Current Version | Previous Version | Text Only | Print | Product List | Glossary On
Versions: 1 2 3 4 5 6 7 8 9 10 11 12 13 14 15
000
FTAK31 PAJN 260500
TAFAYA
TAF
PAYA 260532Z 2606/2706 25010KT P6SM SCT050
     FM260800 VRB03KT P6SM SCT025 BKN050
     FM262000 22006KT P6SM SCT015 OVC025
     FM270300 27007KT P6SM SCT015 OVC025
      AMD LTD TO CLD VIS AND WIND 2606/2610=

USA.gov is the U.S. government's official web portal to all federal, state and local government web resources and services.